createdAt,value
2018-04-23T00:00:58.725Z,99.90
2018-04-23T00:03:26.159Z,99.90
2018-04-23T00:05:52.825Z,99.90
2018-04-23T00:08:20.223Z,99.90
2018-04-23T00:10:46.893Z,99.90
2018-04-23T00:13:13.576Z,99.90
2018-04-23T00:15:40.961Z,99.90
2018-04-23T00:18:07.636Z,99.90
2018-04-23T00:20:34.285Z,99.90
2018-04-23T00:23:00.968Z,99.90
2018-04-23T00:25:28.386Z,99.90
2018-04-23T00:27:55.043Z,99.90
2018-04-23T00:30:21.701Z,99.90
2018-04-23T00:32:49.141Z,99.90
2018-04-23T00:35:15.788Z,99.90
2018-04-23T00:37:42.427Z,99.90
2018-04-23T00:40:09.111Z,99.90
2018-04-23T00:42:35.753Z,99.90
2018-04-23T00:45:02.419Z,99.90
2018-04-23T00:47:29.132Z,99.90
2018-04-23T00:49:56.535Z,99.90
2018-04-23T00:52:23.172Z,99.90
2018-04-23T00:54:49.870Z,99.90
2018-04-23T00:57:17.254Z,99.90
2018-04-23T00:59:43.910Z,99.90
2018-04-23T01:02:10.581Z,99.90
2018-04-23T01:04:37.204Z,99.90
2018-04-23T01:07:03.867Z,99.90
2018-04-23T01:09:30.567Z,99.90
2018-04-23T01:11:57.249Z,99.90
2018-04-23T01:14:23.948Z,99.90
2018-04-23T01:16:50.641Z,99.90
2018-04-23T01:19:17.308Z,99.90
2018-04-23T01:21:44.700Z,99.90
2018-04-23T01:24:11.369Z,99.90
2018-04-23T01:26:38.030Z,99.90
2018-04-23T01:29:04.690Z,99.90
2018-04-23T01:31:31.378Z,99.90
2018-04-23T01:33:58.029Z,99.90
2018-04-23T01:36:24.699Z,99.90
2018-04-23T01:38:51.655Z,99.90
2018-04-23T01:41:18.309Z,99.90
2018-04-23T01:43:45.729Z,99.90
2018-04-23T01:46:12.408Z,99.90
2018-04-23T01:48:39.078Z,99.90
2018-04-23T01:51:05.755Z,99.90
2018-04-23T01:53:32.470Z,99.90
2018-04-23T01:55:59.118Z,99.90
2018-04-23T01:58:25.753Z,99.90
2018-04-23T02:00:52.433Z,99.90
2018-04-23T02:03:19.115Z,99.90
2018-04-23T02:05:46.505Z,99.90
2018-04-23T02:08:13.146Z,99.90
2018-04-23T02:10:39.804Z,99.90
2018-04-23T02:13:06.441Z,99.90
2018-04-23T02:15:33.140Z,99.90
2018-04-23T02:17:59.780Z,99.90
2018-04-23T02:20:26.425Z,99.90
2018-04-23T02:22:53.077Z,99.90
2018-04-23T02:25:20.458Z,99.90
2018-04-23T02:27:47.099Z,99.90
2018-04-23T02:30:13.773Z,99.90
2018-04-23T02:32:40.411Z,99.90
2018-04-23T02:35:07.787Z,99.90
2018-04-23T02:37:34.501Z,99.90
2018-04-23T02:40:01.175Z,99.90
2018-04-23T02:42:27.828Z,99.90
2018-04-23T02:44:54.502Z,99.90
2018-04-23T02:47:21.184Z,99.90
2018-04-23T02:49:47.833Z,99.90
2018-04-23T02:52:14.502Z,99.90
2018-04-23T02:54:41.138Z,99.90
2018-04-23T02:57:07.785Z,99.90
2018-04-23T02:59:34.466Z,99.90
2018-04-23T03:02:01.119Z,99.90
2018-04-23T03:04:27.761Z,99.90
2018-04-23T03:06:54.451Z,99.90
2018-04-23T03:09:21.083Z,99.90
2018-04-23T03:11:47.714Z,99.90
2018-04-23T03:14:14.418Z,99.90
2018-04-23T03:16:41.097Z,99.90
2018-04-23T03:19:07.779Z,99.90
2018-04-23T03:21:35.296Z,99.90
2018-04-23T03:24:01.954Z,99.90
2018-04-23T03:26:28.627Z,99.90
2018-04-23T03:28:56.059Z,99.90
2018-04-23T03:31:23.445Z,99.90
2018-04-23T03:33:50.866Z,99.90
2018-04-23T03:36:17.531Z,99.90
2018-04-23T03:38:44.178Z,99.90
2018-04-23T03:41:10.794Z,99.90
2018-04-23T03:43:37.427Z,99.90
2018-04-23T03:46:04.816Z,99.90
2018-04-23T03:48:31.469Z,99.90
2018-04-23T03:50:58.137Z,99.90
2018-04-23T03:53:24.796Z,99.90
2018-04-23T03:55:51.431Z,99.90
2018-04-23T03:58:18.104Z,99.90
2018-04-23T04:00:44.766Z,99.90
2018-04-23T04:03:11.412Z,99.90
2018-04-23T04:05:38.097Z,99.90
2018-04-23T04:08:04.729Z,99.90
2018-04-23T04:10:32.106Z,99.90
2018-04-23T04:13:17.058Z,99.90
2018-04-23T04:16:02.004Z,99.90
2018-04-23T04:18:44.964Z,99.90
2018-04-23T04:21:11.701Z,99.90
2018-04-23T04:23:39.102Z,99.90
2018-04-23T04:26:05.778Z,99.90
2018-04-23T04:28:32.406Z,99.90
2018-04-23T04:30:59.112Z,99.90
2018-04-23T04:33:25.776Z,99.90
2018-04-23T04:35:52.414Z,99.90
2018-04-23T04:38:19.135Z,99.90
2018-04-23T04:40:46.541Z,99.90
2018-04-23T04:43:13.190Z,99.90
2018-04-23T04:45:39.816Z,99.90
2018-04-23T04:48:06.506Z,99.90
2018-04-23T04:50:33.136Z,99.90
2018-04-23T04:53:00.522Z,99.90
2018-04-23T04:55:27.197Z,99.90
2018-04-23T04:57:53.857Z,99.90
2018-04-23T05:00:20.531Z,99.90
2018-04-23T05:02:47.952Z,99.90
2018-04-23T05:05:14.575Z,99.90
2018-04-23T05:07:41.218Z,99.90
2018-04-23T05:10:07.882Z,99.90
2018-04-23T05:12:34.521Z,99.90
2018-04-23T05:15:01.195Z,99.90
2018-04-23T05:17:28.650Z,99.90
2018-04-23T05:19:56.039Z,99.90
2018-04-23T05:22:22.702Z,99.90
2018-04-23T05:24:49.360Z,99.90
2018-04-23T05:27:16.034Z,99.90
2018-04-23T05:29:43.428Z,99.90
2018-04-23T05:32:10.097Z,99.90
2018-04-23T05:34:36.741Z,99.90
2018-04-23T05:37:10.316Z,99.90
2018-04-23T05:39:36.965Z,99.90
2018-04-23T05:42:03.773Z,99.90
2018-04-23T05:44:38.092Z,99.90
2018-04-23T05:47:05.472Z,99.90
2018-04-23T05:49:32.133Z,99.90
2018-04-23T05:51:58.806Z,99.90
2018-04-23T05:54:25.434Z,99.90
2018-04-23T05:56:52.074Z,99.90
2018-04-23T05:59:18.735Z,99.90
2018-04-23T06:01:46.101Z,99.90
2018-04-23T06:04:12.740Z,99.90
2018-04-23T06:06:39.441Z,99.90
2018-04-23T06:09:06.118Z,99.90
2018-04-23T06:11:32.769Z,99.90
2018-04-23T06:13:59.438Z,99.90
2018-04-23T06:16:26.832Z,99.90
2018-04-23T06:18:53.505Z,99.90
2018-04-23T06:21:20.929Z,99.90
2018-04-23T06:23:47.581Z,99.90
2018-04-23T06:26:14.222Z,99.90
2018-04-23T06:28:40.878Z,99.90
2018-04-23T06:31:07.532Z,99.90
2018-04-23T06:33:34.235Z,99.90
2018-04-23T06:36:00.897Z,99.90
2018-04-23T06:38:27.522Z,96.10
2018-04-23T06:40:54.194Z,96.40
2018-04-23T06:43:20.881Z,94.00
2018-04-23T06:45:48.303Z,88.30
2018-04-23T06:48:14.930Z,88.30
2018-04-23T06:50:41.584Z,79.20
2018-04-23T06:53:08.234Z,77.00
2018-04-23T06:55:34.863Z,72.50
2018-04-23T06:58:01.545Z,69.00
2018-04-23T07:00:28.182Z,65.80
2018-04-23T07:02:54.848Z,62.40
2018-04-23T07:05:22.245Z,52.20
2018-04-23T07:07:48.883Z,52.20
2018-04-23T07:10:15.502Z,49.40
2018-04-23T07:12:42.177Z,48.30
2018-04-23T07:15:08.883Z,46.40
2018-04-23T07:17:35.574Z,44.90
2018-04-23T07:20:02.413Z,41.80
2018-04-23T07:22:29.068Z,42.40
2018-04-23T07:24:55.739Z,42.80
2018-04-23T07:27:23.269Z,41.40
2018-04-23T07:29:49.899Z,41.40
2018-04-23T07:32:16.559Z,39.00
2018-04-23T07:34:43.240Z,39.70
2018-04-23T07:37:10.647Z,37.80
2018-04-23T07:39:38.038Z,37.30
2018-04-23T07:42:04.717Z,37.30
2018-04-23T07:44:31.386Z,37.50
2018-04-23T07:46:58.040Z,36.40
2018-04-23T07:49:24.717Z,36.70
2018-04-23T07:51:51.359Z,40.60
2018-04-23T07:54:18.739Z,44.70
2018-04-23T07:56:45.413Z,44.70
2018-04-23T07:59:12.073Z,42.50
2018-04-23T08:01:38.730Z,39.70
2018-04-23T08:04:05.419Z,44.80
2018-04-23T08:06:32.100Z,47.40
2018-04-23T08:08:58.785Z,49.10
2018-04-23T08:11:26.196Z,47.70
2018-04-23T08:13:53.568Z,50.40
2018-04-23T08:16:20.280Z,49.70
2018-04-23T08:18:46.940Z,51.00
2018-04-23T08:21:13.579Z,48.50
2018-04-23T08:23:40.210Z,47.40
2018-04-23T08:26:06.873Z,49.60
2018-04-23T08:28:33.501Z,50.00
2018-04-23T08:31:00.129Z,48.40
2018-04-23T08:33:26.838Z,47.60
2018-04-23T08:35:54.466Z,51.50
2018-04-23T08:38:21.137Z,51.40
2018-04-23T08:40:47.821Z,49.10
2018-04-23T08:43:14.452Z,45.90
2018-04-23T08:45:41.150Z,43.40
2018-04-23T08:48:07.869Z,42.10
2018-04-23T08:50:34.528Z,42.70
2018-04-23T08:53:01.916Z,41.60
2018-04-23T08:55:29.357Z,38.80
2018-04-23T08:57:56.033Z,38.80
2018-04-23T09:00:24.201Z,41.90
2018-04-23T09:02:51.635Z,42.80
2018-04-23T09:05:18.293Z,42.80
2018-04-23T09:07:44.932Z,37.00
2018-04-23T09:10:11.598Z,36.80
2018-04-23T09:12:38.985Z,31.00
2018-04-23T09:15:05.639Z,30.90
2018-04-23T09:17:32.309Z,34.70
2018-04-23T09:19:59.006Z,37.70
2018-04-23T09:22:25.656Z,37.50
2018-04-23T09:24:52.404Z,37.00
2018-04-23T09:27:19.738Z,33.80
2018-04-23T09:29:46.382Z,33.80
2018-04-23T09:32:13.036Z,30.10
2018-04-23T09:34:39.702Z,29.40
2018-04-23T09:37:06.321Z,29.20
2018-04-23T09:39:33.011Z,30.00
2018-04-23T09:41:59.642Z,28.20
2018-04-23T09:44:26.468Z,28.00
2018-04-23T09:46:53.132Z,27.70
2018-04-23T09:49:19.779Z,30.50
2018-04-23T09:51:46.463Z,31.60
2018-04-23T09:54:13.895Z,31.90
2018-04-23T09:56:40.554Z,31.90
2018-04-23T09:59:07.939Z,31.20
2018-04-23T10:01:34.700Z,31.10
2018-04-23T10:04:05.348Z,29.90
2018-04-23T10:06:32.016Z,30.30
2018-04-23T10:08:58.713Z,29.10
2018-04-23T10:11:25.362Z,26.20
2018-04-23T10:13:52.009Z,25.70
2018-04-23T10:16:18.677Z,24.10
2018-04-23T10:18:45.362Z,23.90
2018-04-23T10:21:12.024Z,24.00
2018-04-23T10:23:38.681Z,24.10
2018-04-23T10:26:05.321Z,24.70
2018-04-23T10:28:31.999Z,24.30
2018-04-23T10:30:59.450Z,17.80
2018-04-23T10:33:26.505Z,17.90
2018-04-23T10:35:54.261Z,17.70
2018-04-23T10:38:21.301Z,17.00
2018-04-23T10:40:48.734Z,18.60
2018-04-23T10:43:15.425Z,18.60
2018-04-23T10:45:42.129Z,18.00
2018-04-23T10:48:08.833Z,16.70
2018-04-23T10:50:36.265Z,16.00
2018-04-23T10:53:02.920Z,16.00
2018-04-23T10:55:29.587Z,16.00
2018-04-23T10:57:56.988Z,20.10
2018-04-23T11:00:23.680Z,20.10
2018-04-23T11:02:50.350Z,16.40
2018-04-23T11:05:17.050Z,18.20
2018-04-23T11:07:43.763Z,20.50
2018-04-23T11:10:10.437Z,21.90
2018-04-23T11:12:37.093Z,20.00
2018-04-23T11:15:03.799Z,18.40
2018-04-23T11:17:30.478Z,21.80
2018-04-23T11:19:57.136Z,22.00
2018-04-23T11:22:24.551Z,23.20
2018-04-23T11:24:51.282Z,23.20
2018-04-23T11:27:18.641Z,22.10
2018-04-23T11:29:46.082Z,22.40
2018-04-23T11:32:12.763Z,22.30
2018-04-23T11:34:39.589Z,22.60
2018-04-23T11:37:06.558Z,23.20
2018-04-23T11:39:33.212Z,31.60
2018-04-23T11:41:59.956Z,32.80
2018-04-23T11:44:26.659Z,32.70
2018-04-23T11:46:53.312Z,29.20
2018-04-23T11:49:19.956Z,28.10
2018-04-23T11:51:46.649Z,27.60
2018-04-23T11:54:14.027Z,26.40
2018-04-23T11:56:40.656Z,26.40
2018-04-23T11:59:08.061Z,27.00
2018-04-23T12:01:34.706Z,26.90
2018-04-23T12:04:01.429Z,27.40
2018-04-23T12:06:28.140Z,27.30
2018-04-23T12:08:55.516Z,26.50
2018-04-23T12:11:22.159Z,26.40
2018-04-23T12:13:48.851Z,26.20
2018-04-23T12:16:15.566Z,25.70
2018-04-23T12:18:42.239Z,26.10
2018-04-23T12:21:08.917Z,25.90
2018-04-23T12:23:36.320Z,28.40
2018-04-23T12:26:02.962Z,28.40
2018-04-23T12:28:29.630Z,29.10
2018-04-23T12:30:56.280Z,30.50
2018-04-23T12:33:23.011Z,31.10
2018-04-23T12:35:49.687Z,32.90
2018-04-23T12:38:17.128Z,36.90
2018-04-23T12:40:43.765Z,36.90
2018-04-23T12:43:10.415Z,36.60
2018-04-23T12:45:37.043Z,38.40
2018-04-23T12:48:03.683Z,38.40
2018-04-23T12:50:30.398Z,35.60
2018-04-23T12:52:57.037Z,36.80
2018-04-23T12:55:23.724Z,37.80
2018-04-23T12:57:50.393Z,38.90
2018-04-23T13:00:17.807Z,37.70
2018-04-23T13:02:44.479Z,37.60
2018-04-23T13:05:11.140Z,39.20
2018-04-23T13:07:38.505Z,38.60
2018-04-23T13:10:05.895Z,39.00
2018-04-23T13:12:32.570Z,39.00
2018-04-23T13:14:59.232Z,37.70
2018-04-23T13:17:26.618Z,38.40
2018-04-23T13:19:53.366Z,38.40
2018-04-23T13:22:20.042Z,38.60
2018-04-23T13:24:46.708Z,38.70
2018-04-23T13:27:13.415Z,37.80
2018-04-23T13:29:40.102Z,37.00
2018-04-23T13:32:06.774Z,37.80
2018-04-23T13:34:33.433Z,38.70
2018-04-23T13:37:00.103Z,38.00
2018-04-23T13:39:26.742Z,38.10
2018-04-23T13:41:53.384Z,38.00
2018-04-23T13:44:20.013Z,36.70
2018-04-23T13:46:46.669Z,37.00
2018-04-23T13:49:13.377Z,37.40
2018-04-23T13:51:40.094Z,38.00
2018-04-23T13:54:07.589Z,38.20
2018-04-23T13:56:34.277Z,38.30
2018-04-23T14:01:34.411Z,37.20
2018-04-23T14:04:01.051Z,37.10
2018-04-23T14:06:27.722Z,37.60
2018-04-23T14:08:54.453Z,37.60
2018-04-23T14:11:21.107Z,37.50
2018-04-23T14:13:47.780Z,38.40
2018-04-23T14:16:14.451Z,38.80
2018-04-23T14:18:41.140Z,39.60
2018-04-23T14:21:08.537Z,41.70
2018-04-23T14:23:35.249Z,41.60
2018-04-23T14:26:02.687Z,43.20
2018-04-23T14:28:29.361Z,43.20
2018-04-23T14:30:56.804Z,41.70
2018-04-23T14:33:23.441Z,41.70
2018-04-23T14:35:50.932Z,48.80
2018-04-23T14:38:18.337Z,49.80
2018-04-23T14:40:44.981Z,49.70
2018-04-23T14:43:11.633Z,50.10
2018-04-23T14:45:38.305Z,50.50
2018-04-23T14:48:05.735Z,51.30
2018-04-23T14:50:32.469Z,51.30
2018-04-23T14:52:59.262Z,52.20
2018-04-23T14:55:26.730Z,52.30
2018-04-23T14:57:53.386Z,52.30
2018-04-23T15:00:20.171Z,52.40
2018-04-23T15:02:46.862Z,53.80
2018-04-23T15:05:14.313Z,52.90
2018-04-23T15:07:41.817Z,53.20
2018-04-23T15:10:08.519Z,53.10
2018-04-23T15:12:35.918Z,52.60
2018-04-23T15:15:02.646Z,52.60
2018-04-23T15:17:29.324Z,52.90
2018-04-23T15:19:55.977Z,54.50
2018-04-23T15:22:22.689Z,54.10
2018-04-23T15:24:49.334Z,53.90
2018-04-23T15:27:16.032Z,53.10
2018-04-23T15:29:43.533Z,51.70
2018-04-23T15:32:10.161Z,51.60
2018-04-23T15:34:36.847Z,52.10
2018-04-23T15:37:03.526Z,52.90
2018-04-23T15:39:30.942Z,52.40
2018-04-23T15:41:57.609Z,52.50
2018-04-23T15:44:24.289Z,53.20
2018-04-23T15:46:50.952Z,54.50
2018-04-23T15:49:17.600Z,54.00
2018-04-23T15:51:44.339Z,53.70
2018-04-23T15:54:10.996Z,54.40
2018-04-23T15:56:37.644Z,53.50
2018-04-23T15:59:04.334Z,53.20
2018-04-23T16:01:31.847Z,53.50
2018-04-23T16:03:58.556Z,53.50
2018-04-23T16:06:25.230Z,55.00
2018-04-23T16:08:51.970Z,57.20
2018-04-23T16:11:18.619Z,60.50
2018-04-23T16:13:45.324Z,63.10
2018-04-23T16:16:11.960Z,65.50
2018-04-23T16:18:38.681Z,68.30
2018-04-23T16:21:06.109Z,71.10
2018-04-23T16:23:32.758Z,71.00
2018-04-23T16:25:59.409Z,72.10
2018-04-23T16:28:26.065Z,72.70
2018-04-23T16:30:53.466Z,74.30
2018-04-23T16:33:20.154Z,74.10
2018-04-23T16:35:46.845Z,78.80
2018-04-23T16:38:13.505Z,84.70
2018-04-23T16:40:40.178Z,88.20
2018-04-23T16:43:06.850Z,90.40
2018-04-23T16:45:34.315Z,91.60
2018-04-23T16:48:01.707Z,92.60
2018-04-23T16:50:28.358Z,92.10
2018-04-23T16:52:55.015Z,92.10
2018-04-23T16:55:21.709Z,91.10
2018-04-23T16:57:48.442Z,92.60
2018-04-23T17:00:15.922Z,99.90
2018-04-23T17:02:42.634Z,99.90
2018-04-23T17:05:10.082Z,99.90
2018-04-23T17:07:36.722Z,99.90
2018-04-23T17:10:03.414Z,99.90
2018-04-23T17:12:30.129Z,99.90
2018-04-23T17:14:57.540Z,99.90
2018-04-23T17:17:24.187Z,99.90
2018-04-23T17:19:50.870Z,99.90
2018-04-23T17:22:18.293Z,99.90
2018-04-23T17:24:44.961Z,99.90
2018-04-23T17:27:11.669Z,99.90
2018-04-23T17:29:38.338Z,99.90
2018-04-23T17:32:05.361Z,99.90
2018-04-23T17:34:32.097Z,99.90
2018-04-23T17:36:58.803Z,99.90
2018-04-23T17:39:26.256Z,99.90
2018-04-23T17:41:53.011Z,99.90
2018-04-23T17:44:20.509Z,99.90
2018-04-23T17:46:47.193Z,99.90
2018-04-23T17:49:13.887Z,99.90
2018-04-23T17:51:40.619Z,99.90
2018-04-23T17:54:07.325Z,99.90
2018-04-23T17:56:34.070Z,99.90
2018-04-23T17:59:00.758Z,99.90
2018-04-23T18:01:27.435Z,99.90
2018-04-23T18:03:54.142Z,99.90
2018-04-23T18:06:20.807Z,99.90
2018-04-23T18:08:47.499Z,99.90
2018-04-23T18:11:14.178Z,99.90
2018-04-23T18:13:40.881Z,99.90
2018-04-23T18:16:07.602Z,99.90
2018-04-23T18:18:41.258Z,99.90
2018-04-23T18:21:08.641Z,99.90
2018-04-23T18:23:35.322Z,99.90
2018-04-23T18:26:02.061Z,99.90
2018-04-23T18:28:28.728Z,99.90
2018-04-23T18:30:56.298Z,99.90
2018-04-23T18:33:23.745Z,99.90
2018-04-23T18:35:50.460Z,99.90
2018-04-23T18:38:17.299Z,99.90
2018-04-23T18:40:44.040Z,99.90
2018-04-23T18:43:10.684Z,99.90
2018-04-23T18:45:37.357Z,99.90
2018-04-23T18:48:04.117Z,99.90
2018-04-23T18:50:31.578Z,99.90
2018-04-23T18:52:59.010Z,99.90
2018-04-23T18:55:25.755Z,99.90
2018-04-23T18:57:52.445Z,99.90
2018-04-23T19:00:19.873Z,99.90
2018-04-23T19:02:46.576Z,99.90
2018-04-23T19:05:13.287Z,99.90
2018-04-23T19:07:40.208Z,99.90
2018-04-23T19:10:06.883Z,99.90
2018-04-23T19:12:34.384Z,99.90
2018-04-23T19:15:01.186Z,99.90
2018-04-23T19:17:28.751Z,99.90
2018-04-23T19:19:56.179Z,99.90
2018-04-23T19:22:22.888Z,99.90
2018-04-23T19:24:49.589Z,99.90
2018-04-23T19:27:16.989Z,99.90
2018-04-23T19:29:43.708Z,99.90
2018-04-23T19:32:10.566Z,99.90
2018-04-23T19:34:37.332Z,99.90
2018-04-23T19:37:04.146Z,99.90
2018-04-23T19:39:30.867Z,99.90
2018-04-23T19:41:58.348Z,99.90
2018-04-23T19:44:25.050Z,99.90
2018-04-23T19:46:51.746Z,99.90
2018-04-23T19:49:18.458Z,99.90
2018-04-23T19:51:45.988Z,99.90
2018-04-23T19:54:12.733Z,99.90
2018-04-23T19:56:39.488Z,99.90
2018-04-23T19:59:06.310Z,99.90
2018-04-23T20:01:33.021Z,99.90
2018-04-23T20:04:06.698Z,99.90
2018-04-23T20:06:33.425Z,99.90
2018-04-23T20:09:00.114Z,99.90
2018-04-23T20:11:26.787Z,99.90
2018-04-23T20:13:53.481Z,99.90
2018-04-23T20:16:20.880Z,99.90
2018-04-23T20:18:47.584Z,99.90
2018-04-23T20:21:15.059Z,99.90
2018-04-23T20:23:42.473Z,99.90
2018-04-23T20:26:09.190Z,99.90
2018-04-23T20:28:35.908Z,99.90
2018-04-23T20:31:02.643Z,99.90
2018-04-23T20:33:30.134Z,99.90
2018-04-23T20:35:56.799Z,99.90
2018-04-23T20:38:23.495Z,99.90
2018-04-23T20:40:50.882Z,99.90
2018-04-23T20:43:17.587Z,99.90
2018-04-23T20:45:45.047Z,99.90
2018-04-23T20:48:11.720Z,99.90
2018-04-23T20:50:39.247Z,99.90
2018-04-23T20:53:05.874Z,99.90
2018-04-23T20:55:32.573Z,99.90
2018-04-23T20:57:59.269Z,99.90
2018-04-23T21:00:26.012Z,99.90
2018-04-23T21:02:52.625Z,99.90
2018-04-23T21:05:19.284Z,99.90
2018-04-23T21:07:46.040Z,99.90
2018-04-23T21:10:13.466Z,99.90
2018-04-23T21:12:40.240Z,99.90
2018-04-23T21:15:06.901Z,99.90
2018-04-23T21:17:34.347Z,99.90
2018-04-23T21:20:01.049Z,99.90
2018-04-23T21:22:27.773Z,99.90
2018-04-23T21:24:54.505Z,99.90
2018-04-23T21:27:21.939Z,99.90
2018-04-23T21:29:48.645Z,99.90
2018-04-23T21:32:15.340Z,99.90
2018-04-23T21:34:42.779Z,99.90
2018-04-23T21:37:09.424Z,99.90
2018-04-23T21:39:36.114Z,99.90
2018-04-23T21:42:02.804Z,99.90
2018-04-23T21:44:29.473Z,99.90
2018-04-23T21:46:56.146Z,99.90
2018-04-23T21:49:22.810Z,99.90
2018-04-23T21:51:49.484Z,99.90
2018-04-23T21:54:16.156Z,99.90
2018-04-23T21:56:43.592Z,99.90
2018-04-23T21:59:10.302Z,99.90
2018-04-23T22:01:37.004Z,99.90
2018-04-23T22:04:04.406Z,99.90
2018-04-23T22:06:31.072Z,99.90
2018-04-23T22:08:57.717Z,99.90
2018-04-23T22:11:24.504Z,99.90
2018-04-23T22:13:51.165Z,99.90
2018-04-23T22:16:17.817Z,99.90
2018-04-23T22:18:44.502Z,99.90
2018-04-23T22:21:11.141Z,99.90
2018-04-23T22:23:37.797Z,99.90
2018-04-23T22:26:05.938Z,99.90
2018-04-23T22:28:32.620Z,99.90
2018-04-23T22:31:00.020Z,99.90
2018-04-23T22:33:26.688Z,99.90
2018-04-23T22:35:53.370Z,99.90
2018-04-23T22:38:20.775Z,99.90
2018-04-23T22:40:47.481Z,99.90
2018-04-23T22:43:14.135Z,99.90
2018-04-23T22:45:40.783Z,99.90
2018-04-23T22:48:07.463Z,99.90
2018-04-23T22:50:34.235Z,99.90
2018-04-23T22:53:00.825Z,99.90
2018-04-23T22:55:27.517Z,99.90
2018-04-23T22:57:54.170Z,99.90
2018-04-23T23:00:21.487Z,99.90
2018-04-23T23:02:48.088Z,99.90
2018-04-23T23:05:14.669Z,99.90
2018-04-23T23:07:41.239Z,99.90
2018-04-23T23:10:07.866Z,99.90
2018-04-23T23:12:34.448Z,99.90
2018-04-23T23:15:01.018Z,99.90
2018-04-23T23:17:27.593Z,99.90
2018-04-23T23:19:54.158Z,99.90
2018-04-23T23:22:21.471Z,99.90
2018-04-23T23:24:55.027Z,99.90
2018-04-23T23:27:21.617Z,99.90
2018-04-23T23:29:48.153Z,99.90
2018-04-23T23:32:14.735Z,99.90
2018-04-23T23:34:42.055Z,99.90
2018-04-23T23:37:09.366Z,99.90
2018-04-23T23:39:35.935Z,99.90
2018-04-23T23:42:02.502Z,99.90
2018-04-23T23:44:29.079Z,99.90
2018-04-23T23:46:56.409Z,99.90
2018-04-23T23:49:23.001Z,99.90
2018-04-23T23:51:49.602Z,99.90
2018-04-23T23:54:16.154Z,99.90
2018-04-23T23:56:43.469Z,99.90
2018-04-23T23:59:10.029Z,99.90
